createdAt,value
2018-04-14T00:01:12.171Z,62.93
2018-04-14T00:03:45.884Z,65.10
2018-04-14T00:06:19.717Z,70.27
2018-04-14T00:08:53.228Z,67.57
2018-04-14T00:11:27.754Z,67.37
2018-04-14T00:14:01.487Z,63.63
2018-04-14T00:16:35.148Z,66.30
2018-04-14T00:19:08.766Z,72.93
2018-04-14T00:21:42.348Z,65.83
2018-04-14T00:24:16.018Z,69.97
2018-04-14T00:26:49.563Z,67.47
2018-04-14T00:29:23.096Z,70.47
2018-04-14T00:31:56.813Z,65.40
2018-04-14T00:34:30.323Z,67.53
2018-04-14T00:37:04.033Z,64.27
2018-04-14T00:39:38.527Z,68.43
2018-04-14T00:42:12.032Z,70.00
2018-04-14T00:44:45.583Z,66.53
2018-04-14T00:47:19.355Z,69.10
2018-04-14T00:49:53.059Z,63.93
2018-04-14T00:52:27.130Z,67.27
2018-04-14T01:04:46.819Z,71.83
2018-04-14T01:07:21.343Z,60.93
2018-04-14T01:09:54.965Z,66.87
2018-04-14T01:12:28.806Z,71.53
2018-04-14T01:15:02.474Z,60.17
2018-04-14T01:17:36.133Z,61.93
2018-04-14T01:20:09.759Z,62.63
2018-04-14T01:22:43.413Z,61.13
2018-04-14T01:25:16.958Z,60.50
2018-04-14T01:27:50.531Z,62.00
2018-04-14T01:30:24.164Z,65.43
2018-04-14T01:32:58.390Z,62.27
2018-04-14T01:35:32.091Z,62.80
2018-04-14T01:38:06.039Z,62.83
2018-04-14T01:40:39.692Z,60.57
2018-04-14T01:43:13.216Z,67.53
2018-04-14T01:45:46.944Z,63.40
2018-04-14T01:48:20.577Z,66.13
2018-04-14T01:50:54.264Z,59.83
2018-04-14T01:53:27.789Z,59.73
2018-04-14T01:56:01.292Z,61.90
2018-04-14T01:58:35.667Z,66.53
2018-04-14T02:01:09.201Z,63.93
2018-04-14T02:03:43.208Z,62.30
2018-04-14T02:06:17.766Z,62.73
2018-04-14T02:08:51.381Z,61.13
2018-04-14T02:11:24.917Z,59.97
2018-04-14T02:13:59.585Z,60.63
2018-04-14T02:16:33.202Z,54.40
2018-04-14T02:19:07.744Z,55.13
2018-04-14T02:21:41.530Z,64.47
2018-04-14T02:24:15.746Z,60.10
2018-04-14T02:26:49.506Z,60.60
2018-04-14T02:29:24.025Z,58.97
2018-04-14T02:31:57.905Z,64.43
2018-04-14T02:34:31.550Z,65.67
2018-04-14T02:37:06.506Z,62.17
2018-04-14T02:39:40.194Z,67.03
2018-04-14T02:42:13.838Z,57.93
2018-04-14T02:44:47.462Z,65.03
2018-04-14T02:47:21.274Z,61.93
2018-04-14T02:49:55.018Z,60.23
2018-04-14T02:52:28.612Z,68.47
2018-04-14T02:55:02.302Z,48.17
2018-04-14T02:57:35.912Z,54.43
2018-04-14T03:00:09.652Z,57.97
2018-04-14T03:02:43.322Z,56.73
2018-04-14T03:05:16.979Z,52.13
2018-04-14T03:07:50.646Z,56.93
2018-04-14T03:10:24.325Z,59.30
2018-04-14T03:12:57.786Z,56.03
2018-04-14T03:15:32.690Z,55.63
2018-04-14T03:18:06.488Z,54.83
2018-04-14T03:20:40.162Z,52.67
2018-04-14T03:23:13.754Z,62.17
2018-04-14T03:25:47.418Z,59.73
2018-04-14T03:28:21.000Z,60.43
2018-04-14T03:30:55.016Z,59.53
2018-04-14T03:33:28.616Z,63.13
2018-04-14T03:36:02.912Z,56.83
2018-04-14T03:38:36.550Z,68.53
2018-04-14T03:41:10.279Z,58.60
2018-04-14T03:43:43.932Z,62.83
2018-04-14T03:46:18.210Z,58.53
2018-04-14T03:48:51.995Z,60.83
2018-04-14T03:51:26.156Z,66.70
2018-04-14T04:07:04.974Z,62.20
2018-04-14T04:09:38.552Z,59.00
2018-04-14T04:12:12.167Z,58.70
2018-04-14T04:14:46.561Z,62.37
2018-04-14T04:17:20.303Z,54.07
2018-04-14T04:20:06.010Z,62.20
2018-04-14T04:22:51.646Z,60.63
2018-04-14T04:25:40.222Z,58.77
2018-04-14T04:28:13.808Z,55.43
2018-04-14T04:30:48.178Z,60.83
2018-04-14T04:33:21.666Z,56.20
2018-04-14T04:35:55.198Z,56.93
2018-04-14T04:38:29.731Z,60.53
2018-04-14T04:41:03.499Z,62.70
2018-04-14T04:43:37.095Z,54.03
2018-04-14T04:46:10.847Z,58.87
2018-04-14T04:48:44.487Z,56.20
2018-04-14T04:51:18.970Z,65.40
2018-04-14T04:53:52.610Z,56.23
2018-04-14T04:56:26.365Z,55.97
2018-04-14T05:08:45.385Z,60.73
2018-04-14T05:11:19.211Z,60.47
2018-04-14T05:13:52.847Z,68.57
2018-04-14T05:16:26.347Z,57.87
2018-04-14T05:18:59.918Z,65.60
2018-04-14T05:21:33.522Z,65.57
2018-04-14T05:24:07.222Z,70.43
2018-04-14T05:26:40.691Z,67.73
2018-04-14T05:29:14.348Z,62.87
2018-04-14T05:31:47.964Z,62.93
2018-04-14T05:34:21.519Z,63.03
2018-04-14T05:36:55.027Z,61.33
2018-04-14T05:39:29.804Z,63.37
2018-04-14T05:42:03.608Z,77.67
2018-04-14T05:44:37.152Z,63.70
2018-04-14T05:47:10.817Z,63.57
2018-04-14T05:49:44.564Z,61.90
2018-04-14T05:52:18.811Z,65.90
2018-04-14T05:54:52.555Z,61.70
2018-04-14T06:00:06.107Z,67.80
2018-04-14T06:02:39.908Z,59.13
2018-04-14T06:05:13.583Z,65.03
2018-04-14T06:07:47.237Z,69.17
2018-04-14T06:10:20.779Z,74.10
2018-04-14T06:12:54.307Z,73.43
2018-04-14T06:15:27.864Z,71.70
2018-04-14T06:18:02.040Z,71.27
2018-04-14T06:20:37.290Z,71.57
2018-04-14T06:23:11.147Z,69.97
2018-04-14T06:25:44.895Z,73.77
2018-04-14T06:28:18.457Z,64.83
2018-04-14T06:30:52.011Z,71.03
2018-04-14T06:33:25.629Z,75.20
2018-04-14T06:35:59.878Z,66.47
2018-04-14T06:38:33.474Z,67.43
2018-04-14T06:41:07.343Z,68.20
2018-04-14T06:43:40.978Z,68.53
2018-04-14T06:59:15.039Z,72.53
2018-04-14T07:01:48.703Z,71.67
2018-04-14T07:04:22.359Z,62.57
2018-04-14T07:06:56.055Z,66.57
2018-04-14T07:09:29.619Z,68.47
2018-04-14T07:12:03.191Z,63.23
2018-04-14T07:14:36.835Z,62.33
2018-04-14T07:17:10.588Z,65.10
2018-04-14T07:19:44.133Z,61.93
2018-04-14T07:22:17.679Z,59.73
2018-04-14T07:24:51.372Z,63.20
2018-04-14T07:27:24.957Z,65.93
2018-04-14T07:29:59.439Z,71.47
2018-04-14T07:32:33.071Z,66.77
2018-04-14T07:35:07.611Z,66.93
2018-04-14T07:37:41.121Z,59.70
2018-04-14T07:40:14.862Z,56.07
2018-04-14T07:42:48.461Z,66.83
2018-04-14T07:45:22.498Z,62.57
2018-04-14T07:47:56.190Z,59.53
2018-04-14T07:50:30.018Z,56.43
2018-04-14T07:53:03.598Z,58.43
2018-04-14T07:55:37.348Z,58.73
2018-04-14T07:58:10.903Z,57.67
2018-04-14T08:00:44.467Z,56.60
2018-04-14T08:03:18.150Z,58.33
2018-04-14T08:05:51.754Z,57.80
2018-04-14T08:08:26.451Z,55.83
2018-04-14T08:11:00.164Z,54.60
2018-04-14T08:13:33.909Z,51.87
2018-04-14T08:16:07.627Z,57.87
2018-04-14T08:18:42.172Z,51.43
2018-04-14T08:21:15.781Z,51.50
2018-04-14T08:23:49.504Z,53.23
2018-04-14T08:26:23.168Z,51.13
2018-04-14T08:28:57.566Z,45.77
2018-04-14T08:31:31.147Z,48.90
2018-04-14T08:34:04.669Z,49.27
2018-04-14T08:36:38.178Z,45.40
2018-04-14T08:39:11.724Z,49.43
2018-04-14T08:41:45.414Z,46.70
2018-04-14T08:44:18.935Z,50.97
2018-04-14T08:46:52.603Z,45.87
2018-04-14T08:49:26.174Z,48.60
2018-04-14T08:51:59.913Z,44.30
2018-04-14T09:04:18.631Z,41.27
2018-04-14T09:06:52.411Z,42.73
2018-04-14T09:09:26.062Z,43.20
2018-04-14T09:11:59.787Z,45.30
2018-04-14T09:14:33.361Z,42.87
2018-04-14T09:17:06.948Z,43.17
2018-04-14T09:19:41.787Z,46.17
2018-04-14T09:22:15.543Z,48.47
2018-04-14T09:24:49.771Z,42.13
2018-04-14T09:27:23.516Z,39.53
2018-04-14T09:29:57.073Z,41.60
2018-04-14T09:32:30.688Z,35.90
2018-04-14T09:35:04.230Z,33.93
2018-04-14T09:37:37.960Z,35.17
2018-04-14T09:40:11.631Z,33.63
2018-04-14T09:42:45.335Z,35.33
2018-04-14T09:45:19.170Z,39.20
2018-04-14T09:47:52.859Z,33.73
2018-04-14T09:50:26.637Z,35.77
2018-04-14T09:53:00.372Z,34.13
2018-04-14T09:55:33.907Z,31.33
2018-04-14T09:58:07.699Z,33.03
2018-04-14T10:00:46.935Z,34.20
2018-04-14T10:03:23.391Z,27.13
2018-04-14T10:05:57.160Z,27.00
2018-04-14T10:08:30.794Z,31.80
2018-04-14T10:11:04.454Z,29.90
2018-04-14T10:13:39.130Z,22.13
2018-04-14T10:16:12.940Z,25.27
2018-04-14T10:18:46.691Z,24.13
2018-04-14T10:21:20.161Z,19.80
2018-04-14T10:23:53.795Z,19.97
2018-04-14T10:26:28.407Z,21.83
2018-04-14T10:29:01.998Z,18.77
2018-04-14T10:31:35.675Z,19.70
2018-04-14T10:34:09.194Z,22.57
2018-04-14T10:36:43.149Z,20.37
2018-04-14T10:39:16.740Z,21.03
2018-04-14T10:41:50.414Z,20.07
2018-04-14T10:44:23.974Z,22.03
2018-04-14T10:46:57.514Z,19.97
2018-04-14T10:49:31.065Z,22.30
2018-04-14T10:52:04.684Z,23.13
2018-04-14T10:54:38.184Z,23.57
2018-04-14T10:57:11.704Z,23.37
2018-04-14T10:59:45.752Z,23.17
2018-04-14T11:02:19.517Z,21.57
2018-04-14T11:04:53.253Z,21.20
2018-04-14T11:07:26.820Z,24.53
2018-04-14T11:10:00.566Z,23.57
2018-04-14T11:12:34.180Z,24.07
2018-04-14T11:15:08.696Z,22.87
2018-04-14T11:17:42.864Z,25.37
2018-04-14T11:20:16.347Z,28.97
2018-04-14T11:22:50.206Z,29.60
2018-04-14T11:25:23.926Z,31.50
2018-04-14T11:27:57.482Z,29.13
2018-04-14T11:30:31.226Z,26.73
2018-04-14T11:33:05.202Z,30.47
2018-04-14T11:35:38.851Z,31.57
2018-04-14T11:38:13.378Z,31.43
2018-04-14T11:40:47.138Z,31.13
2018-04-14T11:43:20.988Z,31.40
2018-04-14T11:45:54.999Z,29.10
2018-04-14T11:48:28.814Z,32.13
2018-04-14T11:51:02.472Z,30.03
2018-04-14T11:53:36.300Z,29.90
2018-04-14T11:56:10.270Z,29.47
2018-04-14T11:58:43.972Z,27.70
2018-04-14T12:01:17.618Z,27.87
2018-04-14T12:03:51.250Z,27.33
2018-04-14T12:06:25.001Z,29.23
2018-04-14T12:08:58.807Z,31.27
2018-04-14T12:11:32.381Z,27.43
2018-04-14T12:14:06.392Z,27.63
2018-04-14T12:16:40.768Z,26.63
2018-04-14T12:19:14.742Z,31.27
2018-04-14T12:21:48.468Z,29.03
2018-04-14T12:24:22.079Z,29.70
2018-04-14T12:26:56.091Z,26.87
2018-04-14T12:29:29.821Z,30.20
2018-04-14T12:32:04.031Z,29.67
2018-04-14T12:34:37.664Z,30.67
2018-04-14T12:37:11.370Z,30.57
2018-04-14T12:39:45.158Z,32.43
2018-04-14T12:42:18.825Z,28.60
2018-04-14T12:44:52.461Z,31.13
2018-04-14T12:47:26.015Z,29.90
2018-04-14T12:49:59.639Z,36.37
2018-04-14T12:52:33.392Z,30.87
2018-04-14T12:55:07.056Z,32.13
2018-04-14T12:57:40.587Z,31.50
2018-04-14T13:00:14.783Z,30.37
2018-04-14T13:02:48.794Z,31.50
2018-04-14T13:05:22.938Z,31.43
2018-04-14T13:07:56.458Z,30.93
2018-04-14T13:10:30.000Z,31.07
2018-04-14T13:13:04.518Z,28.07
2018-04-14T13:15:38.074Z,27.90
2018-04-14T13:18:11.828Z,27.50
2018-04-14T13:20:45.584Z,27.20
2018-04-14T13:23:19.448Z,29.87
2018-04-14T13:25:53.112Z,29.53
2018-04-14T13:28:27.163Z,35.63
2018-04-14T13:31:00.969Z,31.50
2018-04-14T13:33:34.507Z,30.50
2018-04-14T13:36:09.778Z,31.20
2018-04-14T13:38:44.383Z,29.80
2018-04-14T13:41:18.048Z,28.40
2018-04-14T13:43:51.626Z,29.67
2018-04-14T13:46:25.486Z,31.67
2018-04-14T13:49:00.049Z,29.63
2018-04-14T13:51:33.707Z,30.70
2018-04-14T13:54:07.331Z,29.10
2018-04-14T13:56:41.827Z,26.77
2018-04-14T13:59:15.643Z,31.43
2018-04-14T14:01:49.357Z,29.43
2018-04-14T14:04:23.167Z,29.00
2018-04-14T14:06:57.440Z,29.50
2018-04-14T14:09:31.060Z,27.53
2018-04-14T14:12:04.689Z,26.13
2018-04-14T14:14:38.483Z,26.80
2018-04-14T14:17:12.009Z,28.37
2018-04-14T14:19:45.694Z,27.20
2018-04-14T14:22:19.888Z,27.57
2018-04-14T14:24:53.638Z,27.93
2018-04-14T14:27:28.564Z,27.30
2018-04-14T14:30:02.178Z,30.10
2018-04-14T14:32:35.884Z,28.93
2018-04-14T14:35:09.684Z,27.13
2018-04-14T14:37:44.264Z,28.67
2018-04-14T14:40:17.862Z,32.93
2018-04-14T14:42:51.844Z,28.07
2018-04-14T14:45:25.884Z,28.83
2018-04-14T14:47:59.587Z,27.47
2018-04-14T14:50:33.242Z,29.83
2018-04-14T14:53:07.787Z,30.53
2018-04-14T14:55:41.446Z,30.73
2018-04-14T14:58:15.318Z,26.50
2018-04-14T15:00:48.974Z,25.57
2018-04-14T15:03:22.644Z,27.37
2018-04-14T15:05:56.278Z,24.30
2018-04-14T15:08:30.348Z,29.87
2018-04-14T15:11:03.954Z,28.40
2018-04-14T15:13:37.669Z,29.00
2018-04-14T15:16:11.354Z,31.97
2018-04-14T15:18:45.008Z,28.57
2018-04-14T15:21:18.774Z,30.97
2018-04-14T15:23:52.408Z,30.57
2018-04-14T15:26:26.280Z,26.10
2018-04-14T15:28:59.988Z,27.47
2018-04-14T15:31:33.681Z,27.23
2018-04-14T15:34:07.347Z,27.93
2018-04-14T15:36:41.788Z,29.17
2018-04-14T15:39:15.608Z,33.90
2018-04-14T15:41:49.146Z,25.97
2018-04-14T15:44:23.210Z,26.77
2018-04-14T15:46:58.674Z,29.80
2018-04-14T15:49:32.224Z,26.17
2018-04-14T15:52:05.838Z,29.10
2018-04-14T15:54:39.591Z,26.00
2018-04-14T15:57:13.182Z,25.07
2018-04-14T15:59:46.989Z,26.13
2018-04-14T16:02:21.212Z,26.57
2018-04-14T16:04:54.726Z,25.27
2018-04-14T16:07:28.247Z,28.53
2018-04-14T16:10:02.037Z,28.90
2018-04-14T16:12:36.637Z,27.40
2018-04-14T16:15:10.541Z,26.03
2018-04-14T16:17:44.066Z,27.17
2018-04-14T16:20:18.206Z,27.73
2018-04-14T16:22:51.774Z,26.37
2018-04-14T16:25:25.593Z,28.57
2018-04-14T16:27:59.213Z,28.20
2018-04-14T16:30:32.743Z,27.77
2018-04-14T16:33:07.158Z,28.43
2018-04-14T16:35:40.999Z,29.07
2018-04-14T16:38:14.664Z,26.30
2018-04-14T16:40:48.321Z,31.20
2018-04-14T16:43:22.061Z,25.63
2018-04-14T16:45:55.782Z,30.17
2018-04-14T16:48:29.526Z,29.53
2018-04-14T16:51:03.108Z,27.30
2018-04-14T16:53:36.755Z,29.13
2018-04-14T16:56:11.396Z,31.40
2018-04-14T16:58:44.921Z,32.77
2018-04-14T17:01:19.336Z,28.00
2018-04-14T17:03:53.204Z,35.67
2018-04-14T17:06:27.113Z,29.67
2018-04-14T17:09:01.299Z,30.60
2018-04-14T17:11:35.140Z,32.90
2018-04-14T17:14:08.798Z,31.67
2018-04-14T17:16:42.512Z,29.53
2018-04-14T17:19:16.222Z,28.53
2018-04-14T17:21:49.841Z,29.50
2018-04-14T17:24:23.644Z,32.10
2018-04-14T17:26:57.265Z,31.90
2018-04-14T17:29:31.004Z,31.17
2018-04-14T17:32:04.547Z,30.50
2018-04-14T17:34:38.250Z,29.60
2018-04-14T17:37:11.834Z,33.00
2018-04-14T17:39:45.915Z,28.33
2018-04-14T17:42:19.493Z,30.43
2018-04-14T17:44:53.983Z,31.43
2018-04-14T17:47:27.552Z,35.03
2018-04-14T17:50:01.277Z,36.03
2018-04-14T17:52:35.014Z,34.63
2018-04-14T17:55:08.834Z,29.90
2018-04-14T17:57:43.805Z,28.87
2018-04-14T18:00:18.418Z,32.53
2018-04-14T18:02:52.037Z,32.70
2018-04-14T18:05:26.487Z,31.53
2018-04-14T18:08:00.165Z,28.50
2018-04-14T18:10:33.923Z,30.50
2018-04-14T18:13:07.550Z,35.20
2018-04-14T18:15:41.267Z,31.37
2018-04-14T18:18:15.185Z,34.10
2018-04-14T18:20:48.749Z,34.07
2018-04-14T18:23:22.694Z,34.07
2018-04-14T18:25:56.507Z,33.57
2018-04-14T18:28:30.218Z,32.27
2018-04-14T18:31:03.826Z,33.80
2018-04-14T18:33:37.542Z,36.00
2018-04-14T18:36:11.053Z,35.40
2018-04-14T18:38:44.673Z,32.53
2018-04-14T18:41:18.250Z,33.10
2018-04-14T18:43:51.980Z,36.13
2018-04-14T18:46:26.471Z,40.23
2018-04-14T18:49:00.154Z,36.83
2018-04-14T18:51:34.836Z,36.30
2018-04-14T18:54:09.410Z,33.93
2018-04-14T18:56:43.044Z,35.33
2018-04-14T18:59:16.842Z,37.40
2018-04-14T19:01:50.875Z,34.60
2018-04-14T19:04:24.516Z,40.70
2018-04-14T19:06:58.276Z,37.30
2018-04-14T19:09:32.348Z,36.87
2018-04-14T19:12:05.896Z,34.17
2018-04-14T19:14:39.977Z,35.23
2018-04-14T19:17:13.664Z,39.80
2018-04-14T19:19:47.492Z,39.63
2018-04-14T19:22:22.138Z,40.77
2018-04-14T19:24:55.906Z,39.40
2018-04-14T19:27:29.652Z,39.90
2018-04-14T19:30:03.784Z,39.70
2018-04-14T19:32:37.292Z,36.27
2018-04-14T19:35:11.720Z,35.23
2018-04-14T19:37:45.542Z,37.40
2018-04-14T19:40:19.229Z,36.87
2018-04-14T19:42:52.860Z,38.80
2018-04-14T19:45:26.448Z,41.87
2018-04-14T19:47:59.984Z,40.93
2018-04-14T19:50:34.617Z,37.77
2018-04-14T19:53:08.411Z,41.20
2018-04-14T19:55:42.257Z,43.17
2018-04-14T19:58:15.929Z,45.57
2018-04-14T20:00:49.573Z,42.20
2018-04-14T20:03:23.389Z,45.57
2018-04-14T20:05:56.956Z,42.73
2018-04-14T20:08:30.506Z,39.87
2018-04-14T20:11:04.541Z,45.03
2018-04-14T20:13:38.980Z,45.83
2018-04-14T20:16:13.881Z,44.53
2018-04-14T20:18:48.325Z,42.30
2018-04-14T20:21:21.999Z,48.60
2018-04-14T20:23:55.698Z,44.90
2018-04-14T20:26:29.235Z,45.00
2018-04-14T20:29:03.107Z,45.43
2018-04-14T20:31:36.893Z,46.47
2018-04-14T20:34:10.660Z,45.67
2018-04-14T20:36:44.264Z,46.77
2018-04-14T20:39:17.940Z,44.37
2018-04-14T20:41:51.563Z,51.43
2018-04-14T20:44:25.216Z,42.03
2018-04-14T20:46:59.663Z,46.40
2018-04-14T20:49:33.428Z,46.50
2018-04-14T20:52:07.650Z,45.17
2018-04-14T20:54:41.299Z,45.07
2018-04-14T20:57:15.204Z,43.80
2018-04-14T20:59:48.895Z,44.67
2018-04-14T21:02:23.103Z,44.20
2018-04-14T21:04:57.695Z,46.47
2018-04-14T21:07:31.192Z,46.63
2018-04-14T21:10:04.763Z,43.87
2018-04-14T21:12:38.401Z,46.47
2018-04-14T21:15:11.948Z,51.87
2018-04-14T21:17:45.582Z,49.30
2018-04-14T21:20:20.179Z,45.70
2018-04-14T21:22:53.783Z,49.47
2018-04-14T21:25:28.344Z,51.80
2018-04-14T21:28:02.029Z,46.67
2018-04-14T21:30:35.803Z,50.00
2018-04-14T21:33:09.577Z,43.93
2018-04-14T21:35:43.239Z,47.53
2018-04-14T21:38:16.717Z,51.63
2018-04-14T21:40:50.265Z,46.20
2018-04-14T21:43:24.045Z,48.70
2018-04-14T21:45:57.668Z,46.83
2018-04-14T21:48:31.317Z,48.43
2018-04-14T21:51:05.112Z,49.50
2018-04-14T21:53:38.829Z,50.67
2018-04-14T21:56:12.419Z,55.47
2018-04-14T21:58:47.324Z,51.33
2018-04-14T22:01:21.129Z,51.83
2018-04-14T22:03:54.723Z,52.53
2018-04-14T22:06:29.117Z,52.17
2018-04-14T22:09:02.649Z,55.50
2018-04-14T22:21:22.255Z,58.57
2018-04-14T22:23:55.935Z,57.33
2018-04-14T22:26:29.906Z,59.27
2018-04-14T22:29:03.649Z,56.53
2018-04-14T22:31:38.300Z,57.60
2018-04-14T22:34:12.156Z,61.60
2018-04-14T22:36:45.740Z,59.50
2018-04-14T22:39:19.508Z,58.27
2018-04-14T22:41:53.492Z,63.27
2018-04-14T22:44:27.518Z,58.90
2018-04-14T22:47:01.618Z,61.10
2018-04-14T22:49:35.387Z,61.20
2018-04-14T22:52:09.036Z,63.60
2018-04-14T22:54:42.726Z,62.47
2018-04-14T22:57:16.307Z,60.47
2018-04-14T22:59:50.095Z,52.80
2018-04-14T23:02:23.654Z,62.07
2018-04-14T23:04:57.344Z,67.87
2018-04-14T23:07:31.416Z,66.27
2018-04-14T23:10:05.065Z,64.30
2018-04-14T23:12:38.874Z,71.20
2018-04-14T23:15:13.394Z,59.83
2018-04-14T23:17:47.941Z,64.87
2018-04-14T23:20:21.911Z,64.13
2018-04-14T23:22:55.416Z,64.90
2018-04-14T23:25:29.168Z,68.80
2018-04-14T23:28:02.711Z,61.47
2018-04-14T23:30:36.860Z,66.80
2018-04-14T23:33:11.831Z,66.73
2018-04-14T23:35:45.372Z,68.63
2018-04-14T23:38:18.887Z,67.60
2018-04-14T23:50:37.636Z,75.03
2018-04-14T23:53:11.271Z,75.93
2018-04-14T23:55:45.989Z,74.90
2018-04-14T23:58:19.509Z,70.67
